createdAt,value
2023-01-20T00:02:11.677Z,81.89
2023-01-20T00:04:38.500Z,82.19
2023-01-20T00:07:05.317Z,83.22
2023-01-20T00:09:32.088Z,82.14
2023-01-20T00:11:58.785Z,81.88
2023-01-20T00:14:25.898Z,82.30
2023-01-20T00:16:52.598Z,83.67
2023-01-20T00:19:19.315Z,84.97
2023-01-20T00:21:46.073Z,81.63
2023-01-20T00:24:12.845Z,79.09
2023-01-20T00:26:39.627Z,81.12
2023-01-20T00:29:06.649Z,80.29
2023-01-20T00:31:33.425Z,79.06
2023-01-20T00:34:00.951Z,78.70
2023-01-20T00:36:28.741Z,79.83
2023-01-20T00:38:55.485Z,79.45
2023-01-20T00:41:22.919Z,77.91
2023-01-20T00:43:49.678Z,77.39
2023-01-20T00:46:16.554Z,77.23
2023-01-20T00:48:43.400Z,79.18
2023-01-20T00:51:10.860Z,79.45
2023-01-20T00:53:37.690Z,81.33
2023-01-20T00:56:04.859Z,78.64
2023-01-20T00:58:31.708Z,79.56
2023-01-20T01:00:59.148Z,83.34
2023-01-20T01:03:28.317Z,80.50
2023-01-20T01:06:08.387Z,79.12
2023-01-20T01:08:35.421Z,77.62
2023-01-20T01:11:02.457Z,77.18
2023-01-20T01:13:29.276Z,78.76
2023-01-20T01:15:56.113Z,81.06
2023-01-20T01:18:22.879Z,81.04
2023-01-20T01:20:49.647Z,85.10
2023-01-20T01:23:16.317Z,86.34
2023-01-20T01:25:43.024Z,86.35
2023-01-20T01:28:09.771Z,88.22
2023-01-20T01:30:36.507Z,88.46
2023-01-20T01:33:03.257Z,87.49
2023-01-20T01:35:29.980Z,88.36
2023-01-20T01:37:56.669Z,89.19
2023-01-20T01:40:23.442Z,87.36
2023-01-20T01:42:50.182Z,87.27
2023-01-20T01:45:24.353Z,86.94
2023-01-20T01:47:54.606Z,84.38
2023-01-20T01:50:23.831Z,84.29
2023-01-20T01:52:52.171Z,82.87
2023-01-20T01:55:22.579Z,84.13
2023-01-20T01:57:50.430Z,82.61
2023-01-20T02:00:17.352Z,80.98
2023-01-20T02:02:45.762Z,79.19
2023-01-20T02:05:14.042Z,78.44
2023-01-20T02:07:42.739Z,79.37
2023-01-20T02:10:09.746Z,78.96
2023-01-20T02:12:36.552Z,78.93
2023-01-20T02:15:04.146Z,77.33
2023-01-20T02:17:30.801Z,76.70
2023-01-20T02:20:13.000Z,79.96
2023-01-20T02:22:46.075Z,78.02
2023-01-20T02:25:22.358Z,78.24
2023-01-20T02:28:05.461Z,78.20
2023-01-20T02:30:51.307Z,75.57
2023-01-20T02:33:45.463Z,75.14
2023-01-20T02:36:15.879Z,76.08
2023-01-20T02:38:46.134Z,76.54
2023-01-20T02:41:26.727Z,75.59
2023-01-20T02:44:08.791Z,75.77
2023-01-20T02:46:41.119Z,75.34
2023-01-20T02:49:20.445Z,76.66
2023-01-20T02:51:49.972Z,76.03
2023-01-20T02:54:18.857Z,77.60
2023-01-20T02:56:46.350Z,76.16
2023-01-20T02:59:15.871Z,75.41
2023-01-20T03:01:46.148Z,75.43
2023-01-20T03:04:14.296Z,77.09
2023-01-20T03:06:44.238Z,78.22
2023-01-20T03:09:13.394Z,78.43
2023-01-20T03:11:43.564Z,79.15
2023-01-20T03:14:12.255Z,78.24
2023-01-20T03:16:39.256Z,77.50
2023-01-20T03:19:06.214Z,77.44
2023-01-20T03:21:33.624Z,78.08
2023-01-20T03:24:01.501Z,78.43
2023-01-20T03:26:28.667Z,77.32
2023-01-20T03:28:55.801Z,78.64
2023-01-20T03:31:26.575Z,77.74
2023-01-20T03:33:55.385Z,78.25
2023-01-20T03:36:23.766Z,78.33
2023-01-20T03:38:50.809Z,77.58
2023-01-20T03:41:23.799Z,77.21
2023-01-20T03:43:50.501Z,76.62
2023-01-20T03:46:37.411Z,78.09
2023-01-20T03:49:27.439Z,80.02
2023-01-20T03:52:16.052Z,83.12
2023-01-20T03:54:46.102Z,83.59
2023-01-20T03:57:15.371Z,83.62
2023-01-20T03:59:44.178Z,83.49
2023-01-20T04:02:11.979Z,83.06
2023-01-20T04:04:39.944Z,82.28
2023-01-20T04:07:08.379Z,85.42
2023-01-20T04:09:37.098Z,85.13
2023-01-20T04:12:04.230Z,85.00
2023-01-20T04:14:31.056Z,87.03
2023-01-20T04:16:58.546Z,84.75
2023-01-20T04:19:26.130Z,84.10
2023-01-20T04:22:13.084Z,86.42
2023-01-20T04:24:59.670Z,86.14
2023-01-20T04:27:26.382Z,84.59
2023-01-20T04:29:53.101Z,82.87
2023-01-20T04:32:19.836Z,85.42
2023-01-20T04:34:46.577Z,85.05
2023-01-20T04:37:13.286Z,86.05
2023-01-20T04:39:40.089Z,84.85
2023-01-20T04:42:06.839Z,84.64
2023-01-20T04:44:33.631Z,86.25
2023-01-20T04:47:00.441Z,85.44
2023-01-20T04:49:27.663Z,85.42
2023-01-20T04:51:54.476Z,85.90
2023-01-20T04:54:21.401Z,84.69
2023-01-20T04:56:48.602Z,84.27
2023-01-20T04:59:15.342Z,83.45
2023-01-20T05:01:42.289Z,83.56
2023-01-20T05:04:09.086Z,86.11
2023-01-20T05:06:35.933Z,83.57
2023-01-20T05:09:02.713Z,84.72
2023-01-20T05:11:29.497Z,83.27
2023-01-20T05:13:56.193Z,83.65
2023-01-20T05:16:26.101Z,83.31
2023-01-20T05:18:52.932Z,81.69
2023-01-20T05:21:19.655Z,85.09
2023-01-20T05:23:46.378Z,85.98
2023-01-20T05:26:13.226Z,83.19
2023-01-20T05:28:39.943Z,85.74
2023-01-20T05:31:06.763Z,83.13
2023-01-20T05:33:33.722Z,83.12
2023-01-20T05:36:04.377Z,86.87
2023-01-20T05:38:31.532Z,83.77
2023-01-20T05:41:02.047Z,84.73
2023-01-20T05:43:28.919Z,83.81
2023-01-20T05:45:55.651Z,81.45
2023-01-20T05:48:22.548Z,82.04
2023-01-20T05:50:49.378Z,83.42
2023-01-20T05:53:16.175Z,85.13
2023-01-20T05:55:43.075Z,85.33
2023-01-20T05:58:10.371Z,85.51
2023-01-20T06:00:37.180Z,83.68
2023-01-20T06:03:04.296Z,81.63
2023-01-20T06:05:31.110Z,84.85
2023-01-20T06:07:58.581Z,85.08
2023-01-20T06:10:28.125Z,85.18
2023-01-20T06:12:55.691Z,85.05
2023-01-20T06:15:24.080Z,86.47
2023-01-20T06:17:51.039Z,87.12
2023-01-20T06:20:18.160Z,87.05
2023-01-20T06:22:45.049Z,84.69
2023-01-20T06:25:12.361Z,83.74
2023-01-20T06:27:39.364Z,81.89
2023-01-20T06:30:06.540Z,80.72
2023-01-20T06:32:33.655Z,78.80
2023-01-20T06:35:00.718Z,81.06
2023-01-20T06:37:27.707Z,81.91
2023-01-20T06:39:54.665Z,80.44
2023-01-20T06:42:21.758Z,78.84
2023-01-20T06:44:48.607Z,78.00
2023-01-20T06:47:15.399Z,77.58
2023-01-20T06:49:42.867Z,76.45
2023-01-20T06:52:12.029Z,75.96
2023-01-20T06:54:41.647Z,75.54
2023-01-20T06:57:12.209Z,75.50
2023-01-20T06:59:38.998Z,75.35
2023-01-20T07:02:07.263Z,75.36
2023-01-20T07:04:34.140Z,73.60
2023-01-20T07:07:00.972Z,73.85
2023-01-20T07:09:27.925Z,75.30
2023-01-20T07:11:55.137Z,77.83
2023-01-20T07:14:22.060Z,76.14
2023-01-20T07:16:48.994Z,74.56
2023-01-20T07:19:15.920Z,75.89
2023-01-20T07:21:42.673Z,79.50
2023-01-20T07:24:09.566Z,78.43
2023-01-20T07:26:36.656Z,77.59
2023-01-20T07:29:03.506Z,77.62
2023-01-20T07:31:31.818Z,78.65
2023-01-20T07:33:58.874Z,79.34
2023-01-20T07:36:25.811Z,79.56
2023-01-20T07:38:53.327Z,77.62
2023-01-20T07:41:20.847Z,77.38
2023-01-20T07:43:49.472Z,77.31
2023-01-20T07:46:16.801Z,77.39
2023-01-20T07:48:43.766Z,77.80
2023-01-20T07:51:11.700Z,77.67
2023-01-20T07:53:39.706Z,78.64
2023-01-20T07:56:07.967Z,79.57
2023-01-20T07:58:34.888Z,79.67
2023-01-20T08:01:15.296Z,80.08
2023-01-20T08:03:42.313Z,80.37
2023-01-20T08:06:10.360Z,80.16
2023-01-20T08:08:37.692Z,80.59
2023-01-20T08:11:05.161Z,80.65
2023-01-20T08:13:32.271Z,79.95
2023-01-20T08:16:02.888Z,81.44
2023-01-20T08:18:30.056Z,80.93
2023-01-20T08:20:56.859Z,81.36
2023-01-20T08:23:23.799Z,81.61
2023-01-20T08:25:51.921Z,80.98
2023-01-20T08:28:18.692Z,79.25
2023-01-20T08:30:45.598Z,80.72
2023-01-20T08:33:12.438Z,80.47
2023-01-20T08:35:39.404Z,80.06
2023-01-20T08:38:09.049Z,79.00
2023-01-20T08:40:36.082Z,80.04
2023-01-20T08:43:02.838Z,77.47
2023-01-20T08:45:29.655Z,78.39
2023-01-20T08:47:56.530Z,79.00
2023-01-20T08:50:25.708Z,78.60
2023-01-20T08:52:52.492Z,77.47
2023-01-20T08:55:20.212Z,77.91
2023-01-20T08:57:47.041Z,79.15
2023-01-20T09:00:14.259Z,79.85
2023-01-20T09:02:41.798Z,79.07
2023-01-20T09:05:09.038Z,80.17
2023-01-20T09:07:36.379Z,78.50
2023-01-20T09:10:04.318Z,80.06
2023-01-20T09:12:31.201Z,79.56
2023-01-20T09:14:59.990Z,79.54
2023-01-20T09:17:26.771Z,79.02
2023-01-20T09:19:54.960Z,81.27
2023-01-20T09:22:21.784Z,79.76
2023-01-20T09:24:48.567Z,79.47
2023-01-20T09:27:15.472Z,80.38
2023-01-20T09:29:42.202Z,80.24
2023-01-20T09:32:09.172Z,79.44
2023-01-20T09:34:36.112Z,80.04
2023-01-20T09:37:23.559Z,79.11
2023-01-20T09:40:08.596Z,79.72
2023-01-20T09:42:53.707Z,79.82
2023-01-20T09:45:31.187Z,81.81
2023-01-20T09:48:15.721Z,80.73
2023-01-20T09:51:09.378Z,80.69
2023-01-20T09:53:38.167Z,82.04
2023-01-20T09:56:16.347Z,81.62
2023-01-20T09:59:22.241Z,81.55
2023-01-20T10:01:51.961Z,79.35
2023-01-20T10:04:18.929Z,80.28
2023-01-20T10:06:48.862Z,80.30
2023-01-20T10:09:18.638Z,79.03
2023-01-20T10:11:47.297Z,79.00
2023-01-20T10:14:43.654Z,79.00
2023-01-20T10:17:12.471Z,79.59
2023-01-20T10:19:43.109Z,79.43
2023-01-20T10:22:17.020Z,79.22
2023-01-20T10:24:48.854Z,79.25
2023-01-20T10:27:15.780Z,78.50
2023-01-20T10:29:45.390Z,78.01
2023-01-20T10:32:32.416Z,76.57
2023-01-20T10:35:02.894Z,74.99
2023-01-20T10:37:32.139Z,74.81
2023-01-20T10:40:03.965Z,75.79
2023-01-20T10:42:32.790Z,76.25
2023-01-20T10:45:01.972Z,76.24
2023-01-20T10:47:28.789Z,76.32
2023-01-20T10:49:56.433Z,75.66
2023-01-20T10:52:42.010Z,76.05
2023-01-20T10:55:15.768Z,76.96
2023-01-20T10:57:42.764Z,75.52
2023-01-20T11:00:30.675Z,76.17
2023-01-20T11:02:59.351Z,77.24
2023-01-20T11:05:27.951Z,76.59
2023-01-20T11:07:56.861Z,76.03
2023-01-20T11:10:46.253Z,75.42
2023-01-20T11:13:15.250Z,75.54
2023-01-20T11:15:47.770Z,75.36
2023-01-20T11:18:14.548Z,74.87
2023-01-20T11:20:44.416Z,76.59
2023-01-20T11:23:22.343Z,75.73
2023-01-20T11:26:16.091Z,74.89
2023-01-20T11:29:00.054Z,75.17
2023-01-20T11:31:52.301Z,76.47
2023-01-20T11:34:22.549Z,76.29
2023-01-20T11:37:16.574Z,76.35
2023-01-20T11:39:45.060Z,77.04
2023-01-20T11:42:25.800Z,76.40
2023-01-20T11:44:52.608Z,76.06
2023-01-20T11:47:25.215Z,76.86
2023-01-20T11:50:09.555Z,77.07
2023-01-20T11:52:40.695Z,77.82
2023-01-20T11:55:14.394Z,78.12
2023-01-20T11:57:55.823Z,78.47
2023-01-20T12:00:32.441Z,78.00
2023-01-20T12:03:12.009Z,78.20
2023-01-20T12:05:54.658Z,76.48
2023-01-20T12:08:27.044Z,74.45
2023-01-20T12:10:55.824Z,74.16
2023-01-20T12:13:30.750Z,74.05
2023-01-20T12:16:01.566Z,74.12
2023-01-20T12:18:28.425Z,74.38
2023-01-20T12:21:02.156Z,74.14
2023-01-20T12:23:35.414Z,73.01
2023-01-20T12:26:06.509Z,73.87
2023-01-20T12:29:09.255Z,73.51
2023-01-20T12:31:38.194Z,73.57
2023-01-20T12:34:14.729Z,73.95
2023-01-20T12:36:42.965Z,74.54
2023-01-20T12:39:28.357Z,74.21
2023-01-20T12:42:02.487Z,72.90
2023-01-20T12:44:29.571Z,73.21
2023-01-20T12:46:59.091Z,73.21
2023-01-20T12:49:36.937Z,72.71
2023-01-20T12:52:21.831Z,72.18
2023-01-20T12:54:55.988Z,71.16
2023-01-20T12:57:25.881Z,73.53
2023-01-20T13:00:12.472Z,73.78
2023-01-20T13:02:42.087Z,73.20
2023-01-20T13:05:17.274Z,73.65
2023-01-20T13:07:44.028Z,73.00
2023-01-20T13:10:30.849Z,74.53
2023-01-20T13:13:08.963Z,74.22
2023-01-20T13:15:40.864Z,74.29
2023-01-20T13:18:18.061Z,73.90
2023-01-20T13:20:45.994Z,75.14
2023-01-20T13:23:18.797Z,75.43
2023-01-20T13:25:48.935Z,72.73
2023-01-20T13:28:20.742Z,74.21
2023-01-20T13:30:51.212Z,73.39
2023-01-20T13:33:33.873Z,74.33
2023-01-20T13:36:03.693Z,73.92
2023-01-20T13:38:33.331Z,73.44
2023-01-20T13:41:05.523Z,74.40
2023-01-20T13:43:32.262Z,74.23
2023-01-20T13:46:05.234Z,72.91
2023-01-20T13:48:32.747Z,73.37
2023-01-20T13:51:18.092Z,73.05
2023-01-20T13:53:47.412Z,71.84
2023-01-20T13:56:26.116Z,72.70
2023-01-20T13:58:53.394Z,73.41
2023-01-20T14:01:20.188Z,72.79
2023-01-20T14:04:01.367Z,72.41
2023-01-20T14:06:28.657Z,72.65
2023-01-20T14:08:55.577Z,71.49
2023-01-20T14:11:23.643Z,71.48
2023-01-20T14:13:59.640Z,70.81
2023-01-20T14:16:28.254Z,70.49
2023-01-20T14:18:56.773Z,70.69
2023-01-20T14:21:28.176Z,70.76
2023-01-20T14:23:55.277Z,70.19
2023-01-20T14:26:31.792Z,70.44
2023-01-20T14:28:59.803Z,70.42
2023-01-20T14:31:36.905Z,70.05
2023-01-20T14:34:19.900Z,70.51
2023-01-20T14:36:46.887Z,70.58
2023-01-20T14:39:27.275Z,70.69
2023-01-20T14:41:56.256Z,71.43
2023-01-20T14:44:24.776Z,70.53
2023-01-20T14:46:53.303Z,70.61
2023-01-20T14:49:21.534Z,70.29
2023-01-20T14:51:52.190Z,70.30
2023-01-20T14:54:30.841Z,71.27
2023-01-20T14:56:58.900Z,70.65
2023-01-20T14:59:26.122Z,70.70
2023-01-20T15:01:57.339Z,71.27
2023-01-20T15:04:24.355Z,70.33
2023-01-20T15:06:58.381Z,70.11
2023-01-20T15:09:26.114Z,70.10
2023-01-20T15:12:12.779Z,69.71
2023-01-20T15:14:41.067Z,69.99
2023-01-20T15:17:08.935Z,69.48
2023-01-20T15:19:37.901Z,70.36
2023-01-20T15:22:16.711Z,69.76
2023-01-20T15:24:49.391Z,70.38
2023-01-20T15:27:42.535Z,69.63
2023-01-20T15:30:23.326Z,69.76
2023-01-20T15:32:51.043Z,69.44
2023-01-20T15:35:21.173Z,70.85
2023-01-20T15:37:47.910Z,71.08
2023-01-20T15:40:15.928Z,72.56
2023-01-20T15:42:42.789Z,71.41
2023-01-20T15:45:12.989Z,70.86
2023-01-20T15:47:41.774Z,71.31
2023-01-20T15:50:20.405Z,70.86
2023-01-20T15:52:47.322Z,71.64
2023-01-20T15:55:15.609Z,71.81
2023-01-20T15:57:42.842Z,71.76
2023-01-20T16:00:19.645Z,72.78
2023-01-20T16:02:46.673Z,73.73
2023-01-20T16:05:17.866Z,72.60
2023-01-20T16:07:47.239Z,72.41
2023-01-20T16:10:15.571Z,72.72
2023-01-20T16:12:42.917Z,72.49
2023-01-20T16:15:14.778Z,73.04
2023-01-20T16:17:41.718Z,73.12
2023-01-20T16:20:26.781Z,72.36
2023-01-20T16:22:54.078Z,74.37
2023-01-20T16:25:21.314Z,73.25
2023-01-20T16:27:48.122Z,73.67
2023-01-20T16:30:18.728Z,74.02
2023-01-20T16:32:46.796Z,72.39
2023-01-20T16:35:14.416Z,73.48
2023-01-20T16:37:42.381Z,74.03
2023-01-20T16:40:13.047Z,73.17
2023-01-20T16:42:41.939Z,72.78
2023-01-20T16:45:19.195Z,73.77
2023-01-20T16:47:45.960Z,72.37
2023-01-20T16:50:13.030Z,73.07
2023-01-20T16:52:39.970Z,72.90
2023-01-20T16:55:07.216Z,73.36
2023-01-20T16:57:33.934Z,72.37
2023-01-20T17:00:00.753Z,72.29
2023-01-20T17:02:27.495Z,73.38
2023-01-20T17:04:54.346Z,73.10
2023-01-20T17:07:21.034Z,73.03
2023-01-20T17:09:47.727Z,71.03
2023-01-20T17:12:14.630Z,72.06
2023-01-20T17:14:41.372Z,72.38
2023-01-20T17:17:08.123Z,71.98
2023-01-20T17:19:34.813Z,72.47
2023-01-20T17:22:01.590Z,72.75
2023-01-20T17:24:28.494Z,72.25
2023-01-20T17:26:55.214Z,72.70
2023-01-20T17:29:22.231Z,72.26
2023-01-20T17:31:49.001Z,72.43
2023-01-20T17:34:15.785Z,71.34
2023-01-20T17:36:42.516Z,71.38
2023-01-20T17:39:10.422Z,71.53
2023-01-20T17:41:37.198Z,71.60
2023-01-20T17:44:07.837Z,72.07
2023-01-20T17:46:34.751Z,72.29
2023-01-20T17:49:02.221Z,71.90
2023-01-20T17:51:29.552Z,71.24
2023-01-20T17:53:57.718Z,72.04
2023-01-20T17:56:24.832Z,72.08
2023-01-20T17:58:51.725Z,71.95
2023-01-20T18:01:19.819Z,72.68
2023-01-20T18:03:47.598Z,71.26
2023-01-20T18:06:15.495Z,72.39
2023-01-20T18:08:42.873Z,71.40
2023-01-20T18:11:11.162Z,72.52
2023-01-20T18:13:38.533Z,72.66
2023-01-20T18:16:05.538Z,71.60
2023-01-20T18:18:32.367Z,71.83
2023-01-20T18:21:09.447Z,73.51
2023-01-20T18:23:39.055Z,72.81
2023-01-20T18:26:06.937Z,72.07
2023-01-20T18:28:34.599Z,71.93
2023-01-20T18:31:12.261Z,71.00
2023-01-20T18:33:50.140Z,73.66
2023-01-20T18:36:18.334Z,73.70
2023-01-20T18:38:49.491Z,73.31
2023-01-20T18:41:16.250Z,73.02
2023-01-20T18:43:42.919Z,72.92
2023-01-20T18:46:10.000Z,72.28
2023-01-20T18:48:40.635Z,73.68
2023-01-20T18:51:08.155Z,72.94
2023-01-20T18:53:35.068Z,71.88
2023-01-20T18:56:02.829Z,72.06
2023-01-20T18:58:30.120Z,70.91
2023-01-20T19:01:04.103Z,72.95
2023-01-20T19:03:30.965Z,74.39
2023-01-20T19:06:05.280Z,72.28
2023-01-20T19:08:32.192Z,72.43
2023-01-20T19:10:59.672Z,71.88
2023-01-20T19:13:26.401Z,73.06
2023-01-20T19:15:53.270Z,73.30
2023-01-20T19:18:20.010Z,73.09
2023-01-20T19:20:46.713Z,71.60
2023-01-20T19:23:13.993Z,71.70
2023-01-20T19:25:40.701Z,72.71
2023-01-20T19:28:09.317Z,72.27
2023-01-20T19:30:38.435Z,71.77
2023-01-20T19:33:05.151Z,71.24
2023-01-20T19:35:33.668Z,71.82
2023-01-20T19:38:00.413Z,72.34
2023-01-20T19:40:27.148Z,72.20
2023-01-20T19:42:54.183Z,70.65
2023-01-20T19:45:20.879Z,70.33
2023-01-20T19:47:47.648Z,70.58
2023-01-20T19:50:14.774Z,70.21
2023-01-20T19:52:41.718Z,71.72
2023-01-20T19:55:10.448Z,72.46
2023-01-20T19:57:37.475Z,72.94
2023-01-20T20:00:04.992Z,73.48
2023-01-20T20:02:31.781Z,72.65
2023-01-20T20:04:58.555Z,72.85
2023-01-20T20:07:25.316Z,74.01
2023-01-20T20:09:52.381Z,73.16
2023-01-20T20:12:19.156Z,74.79
2023-01-20T20:14:46.101Z,74.46
2023-01-20T20:17:13.528Z,75.85
2023-01-20T20:19:40.258Z,77.22
2023-01-20T20:22:07.174Z,76.97
2023-01-20T20:24:33.980Z,77.37
2023-01-20T20:27:00.773Z,78.60
2023-01-20T20:29:28.315Z,78.24
2023-01-20T20:31:55.121Z,79.44
2023-01-20T20:34:22.013Z,79.29
2023-01-20T20:36:48.768Z,77.79
2023-01-20T20:39:17.577Z,80.49
2023-01-20T20:41:44.602Z,78.49
2023-01-20T20:44:11.784Z,78.58
2023-01-20T20:46:38.999Z,77.85
2023-01-20T20:49:05.861Z,77.61
2023-01-20T20:51:41.789Z,80.46
2023-01-20T20:54:09.644Z,79.21
2023-01-20T20:56:36.700Z,79.34
2023-01-20T20:59:03.946Z,79.12
2023-01-20T21:01:33.005Z,80.87
2023-01-20T21:04:00.769Z,81.04
2023-01-20T21:06:28.290Z,79.20
2023-01-20T21:08:55.188Z,80.56
2023-01-20T21:11:21.923Z,80.65
2023-01-20T21:13:49.711Z,79.68
2023-01-20T21:16:17.748Z,80.66
2023-01-20T21:18:44.599Z,80.99
2023-01-20T21:21:12.636Z,83.06
2023-01-20T21:23:41.618Z,83.92
2023-01-20T21:26:10.527Z,84.85
2023-01-20T21:28:37.286Z,84.42
2023-01-20T21:31:07.632Z,85.53
2023-01-20T21:33:35.714Z,85.85
2023-01-20T21:36:04.036Z,85.71
2023-01-20T21:38:32.421Z,86.64
2023-01-20T21:41:03.725Z,86.75
2023-01-20T21:43:49.391Z,89.08
2023-01-20T21:46:16.561Z,88.69
2023-01-20T21:49:01.851Z,87.58
2023-01-20T21:51:47.406Z,88.41
2023-01-20T21:54:14.140Z,88.48
2023-01-20T21:56:40.858Z,88.25
2023-01-20T21:59:08.026Z,90.05
2023-01-20T22:01:35.300Z,91.43
2023-01-20T22:04:02.266Z,92.66
2023-01-20T22:06:29.427Z,91.13
2023-01-20T22:08:58.560Z,92.93
2023-01-20T22:11:26.151Z,92.53
2023-01-20T22:13:54.514Z,94.66
2023-01-20T22:16:22.970Z,93.25
2023-01-20T22:18:50.357Z,93.98
2023-01-20T22:21:17.161Z,92.26
2023-01-20T22:23:43.891Z,93.83
2023-01-20T22:26:10.621Z,92.56
2023-01-20T22:28:40.111Z,93.34
2023-01-20T22:31:13.389Z,95.01
2023-01-20T22:33:40.390Z,94.28
2023-01-20T22:36:07.289Z,91.96
2023-01-20T22:38:34.482Z,93.64
2023-01-20T22:41:05.328Z,94.14
2023-01-20T22:43:34.171Z,94.48
2023-01-20T22:46:01.743Z,94.31
2023-01-20T22:48:30.037Z,96.13
2023-01-20T22:51:01.815Z,95.26
2023-01-20T22:53:28.519Z,95.57
2023-01-20T22:56:00.987Z,96.02
2023-01-20T22:58:28.011Z,97.52
2023-01-20T23:00:54.780Z,95.86
2023-01-20T23:03:21.569Z,96.05
2023-01-20T23:05:52.187Z,96.51
2023-01-20T23:08:18.951Z,96.21
2023-01-20T23:10:48.381Z,95.58
2023-01-20T23:13:15.840Z,96.58
2023-01-20T23:15:42.828Z,96.51
2023-01-20T23:18:10.011Z,98.04
2023-01-20T23:20:37.286Z,96.58
2023-01-20T23:23:04.463Z,96.82
2023-01-20T23:25:31.191Z,95.91
2023-01-20T23:27:57.976Z,95.57
2023-01-20T23:30:24.690Z,95.24
2023-01-20T23:32:51.676Z,95.38
2023-01-20T23:35:18.345Z,96.01
2023-01-20T23:37:45.187Z,91.67
2023-01-20T23:40:12.701Z,93.40
2023-01-20T23:42:39.394Z,92.46
2023-01-20T23:45:06.652Z,94.23
2023-01-20T23:47:35.723Z,93.35
2023-01-20T23:50:03.143Z,94.04
2023-01-20T23:52:30.080Z,92.17
2023-01-20T23:54:57.987Z,93.59
2023-01-20T23:57:24.890Z,93.64
2023-01-20T23:59:51.648Z,92.37
